NCAR-RAP Real-Time Weather Data

Output produced by METARs form (17 November 2017  17:46 UTC)
found at http://weather.rap.ucar.edu/surface/
 
Conditions at: KFMY observed 17 November 2017  16:53 UTC
Temperature: 26.1°C (79°F)
Dewpoint: 16.7°C (62°F) [RH = 56%]
Pressure (altimeter): 30.05 inches Hg (1017.7 mb)
[Sea-level pressure: 1017.8 mb]
Winds: from the NE (40 degrees) at 12 MPH (10 knots; 5.2 m/s)
Visibility: 9 miles (14 km)
Ceiling: at least 12,000 feet AGL
Clouds: sky clear below 12,000 feet AGL
Present Weather: no significant weather observed at this time
KFMY 171653Z 04010KT 9SM CLR 26/17 A3005 RMK AO2 SLP178 T02610167

Conditions at: KFMY observed 17 November 2017  15:53 UTC
Temperature: 24.4°C (76°F)
Dewpoint: 16.7°C (62°F) [RH = 62%]
Pressure (altimeter): 30.07 inches Hg (1018.4 mb)
[Sea-level pressure: 1018.4 mb]
Winds: from the ENE (60 degrees) at 7 MPH (6 knots; 3.1 m/s)
Visibility: 9 miles (14 km)
Ceiling: at least 12,000 feet AGL
Clouds: sky clear below 12,000 feet AGL
Present Weather: no significant weather observed at this time
KFMY 171553Z 06006KT 9SM CLR 24/17 A3007 RMK AO2 SLP184 T02440167

Conditions at: KFMY observed 17 November 2017  14:53 UTC
Temperature: 22.2°C (72°F)
Dewpoint: 15.6°C (60°F) [RH = 66%]
Pressure (altimeter): 30.07 inches Hg (1018.4 mb)
[Sea-level pressure: 1018.6 mb]
Winds: from the ENE (70 degrees) at 10 MPH (9 knots; 4.7 m/s)
Visibility: 8 miles (13 km)
Ceiling: at least 12,000 feet AGL
Clouds: sky clear below 12,000 feet AGL
Present Weather: no significant weather observed at this time
KFMY 171453Z 07009KT 8SM CLR 22/16 A3007 RMK AO2 SLP186 T02220156 51008

Conditions at: KFMY observed 17 November 2017  13:53 UTC
Temperature: 20.6°C (69°F)
Dewpoint: 15.0°C (59°F) [RH = 70%]
Pressure (altimeter): 30.07 inches Hg (1018.4 mb)
[Sea-level pressure: 1018.5 mb]
Winds: from the NE (50 degrees) at 13 MPH (11 knots; 5.7 m/s)
Visibility: 8 miles (13 km)
Ceiling: at least 12,000 feet AGL
Clouds: sky clear below 12,000 feet AGL
Present Weather: no significant weather observed at this time
KFMY 171353Z 05011KT 8SM CLR 21/15 A3007 RMK AO2 SLP185 T02060150

Conditions at: KFMY observed 17 November 2017  12:53 UTC
Temperature: 18.9°C (66°F)
Dewpoint: 14.4°C (58°F) [RH = 75%]
Pressure (altimeter): 30.06 inches Hg (1018.0 mb)
[Sea-level pressure: 1018.1 mb]
Winds: from the NE (40 degrees) at 12 MPH (10 knots; 5.2 m/s)
Visibility: 8 miles (13 km)
Ceiling: at least 12,000 feet AGL
Clouds: few clouds at 4400 feet AGL
Present Weather: no significant weather observed at this time
KFMY 171253Z 04010KT 8SM FEW044 19/14 A3006 RMK AO2 SLP181 T01890144

Conditions at: KFMY observed 17 November 2017  11:53 UTC
Temperature: 17.2°C (63°F)
Dewpoint: 15.0°C (59°F) [RH = 87%]
Pressure (altimeter): 30.05 inches Hg (1017.7 mb)
[Sea-level pressure: 1017.7 mb]
Winds: from the NNE (30 degrees) at 8 MPH (7 knots; 3.6 m/s)
Visibility: 7 miles (11 km)
Ceiling: at least 12,000 feet AGL
Clouds: few clouds at 4500 feet AGL
Present Weather: no significant weather observed at this time
KFMY 171153Z 03007KT 7SM FEW045 17/15 A3005 RMK AO2 SLP177 7//// T01720150 10178 20172 53010

Conditions at: KFMY observed 17 November 2017  10:53 UTC
Temperature: 17.2°C (63°F)
Dewpoint: 15.0°C (59°F) [RH = 87%]
Pressure (altimeter): 30.03 inches Hg (1017.0 mb)
[Sea-level pressure: 1017.1 mb]
Winds: from the NNE (30 degrees) at 8 MPH (7 knots; 3.6 m/s)
Visibility: 8 miles (13 km)
Ceiling: at least 12,000 feet AGL
Clouds: few clouds at 5000 feet AGL
Present Weather: automated observation with no human augmentation;
there may or may not be significant weather present at this time
KFMY 171053Z AUTO 03007KT 8SM FEW050 17/15 A3003 RMK AO2 SLP171 T01720150

Conditions at: KFMY observed 17 November 2017  09:53 UTC
Temperature: 17.8°C (64°F)
Dewpoint: 15.0°C (59°F) [RH = 84%]
Pressure (altimeter): 30.02 inches Hg (1016.7 mb)
[Sea-level pressure: 1016.6 mb]
Winds: from the NNE (30 degrees) at 10 MPH (9 knots; 4.7 m/s)
Visibility: 9 miles (14 km)
Ceiling: 4700 feet AGL
Clouds: overcast cloud deck at 4700 feet AGL
Present Weather: automated observation with no human augmentation;
there may or may not be significant weather present at this time
KFMY 170953Z AUTO 03009KT 9SM OVC047 18/15 A3002 RMK AO2 SLP166 T01780150

Conditions at: KFMY observed 17 November 2017  08:53 UTC
Temperature: 17.2°C (63°F)
Dewpoint: 15.0°C (59°F) [RH = 87%]
Pressure (altimeter): 30.02 inches Hg (1016.7 mb)
[Sea-level pressure: 1016.6 mb]
Winds: from the NNE (30 degrees) at 8 MPH (7 knots; 3.6 m/s)
Visibility: 8 miles (13 km)
Ceiling: at least 12,000 feet AGL
Clouds: few clouds at 5000 feet AGL
Present Weather: automated observation with no human augmentation;
there may or may not be significant weather present at this time
KFMY 170853Z AUTO 03007KT 8SM FEW050 17/15 A3002 RMK AO2 SLP166 T01720150 55005

Conditions at: KFMY observed 17 November 2017  07:53 UTC
Temperature: 17.2°C (63°F)
Dewpoint: 15.6°C (60°F) [RH = 90%]
Pressure (altimeter): 30.02 inches Hg (1016.7 mb)
[Sea-level pressure: 1016.6 mb]
Winds: from the NNE (30 degrees) at 6 MPH (5 knots; 2.6 m/s)
Visibility: 8 miles (13 km)
Ceiling: at least 12,000 feet AGL
Clouds: sky clear below 12,000 feet AGL
Present Weather: automated observation with no human augmentation;
there may or may not be significant weather present at this time
KFMY 170753Z AUTO 03005KT 8SM CLR 17/16 A3002 RMK AO2 SLP166 T01720156

Conditions at: KFMY observed 17 November 2017  06:53 UTC
Temperature: 17.8°C (64°F)
Dewpoint: 15.0°C (59°F) [RH = 84%]
Pressure (altimeter): 30.02 inches Hg (1016.7 mb)
[Sea-level pressure: 1016.8 mb]
Winds: from the NNE (20 degrees) at 6 MPH (5 knots; 2.6 m/s)
Visibility: 9 miles (14 km)
Ceiling: at least 12,000 feet AGL
Clouds: sky clear below 12,000 feet AGL
Present Weather: automated observation with no human augmentation;
there may or may not be significant weather present at this time
KFMY 170653Z AUTO 02005KT 9SM CLR 18/15 A3002 RMK AO2 SLP168 T01780150

Conditions at: KFMY observed 17 November 2017  05:53 UTC
Temperature: 17.8°C (64°F)
Dewpoint: 15.6°C (60°F) [RH = 87%]
Pressure (altimeter): 30.03 inches Hg (1017.0 mb)
[Sea-level pressure: 1017.1 mb]
Winds: from the NE (40 degrees) at 6 MPH (5 knots; 2.6 m/s)
Visibility: 9 miles (14 km)
Ceiling: at least 12,000 feet AGL
Clouds: sky clear below 12,000 feet AGL
Present Weather: automated observation with no human augmentation;
there may or may not be significant weather present at this time
KFMY 170553Z AUTO 04005KT 9SM CLR 18/16 A3003 RMK AO2 SLP171 T01780156 10222 20178 58006

Conditions at: KFMY observed 17 November 2017  04:53 UTC
Temperature: 18.3°C (65°F)
Dewpoint: 16.1°C (61°F) [RH = 87%]
Pressure (altimeter): 30.04 inches Hg (1017.4 mb)
[Sea-level pressure: 1017.3 mb]
Winds: from the ENE (60 degrees) at 7 MPH (6 knots; 3.1 m/s)
Visibility: 9 miles (14 km)
Ceiling: at least 12,000 feet AGL
Clouds: sky clear below 12,000 feet AGL
Present Weather: automated observation with no human augmentation;
there may or may not be significant weather present at this time
KFMY 170453Z AUTO 06006KT 9SM CLR 18/16 A3004 RMK AO2 SLP173 T01830161 402720183

Conditions at: KFMY observed 17 November 2017  03:53 UTC
Temperature: 18.9°C (66°F)
Dewpoint: 16.7°C (62°F) [RH = 87%]
Pressure (altimeter): 30.05 inches Hg (1017.7 mb)
[Sea-level pressure: 1017.6 mb]
Winds: from the ENE (60 degrees) at 7 MPH (6 knots; 3.1 m/s)
Visibility: 9 miles (14 km)
Ceiling: at least 12,000 feet AGL
Clouds: sky clear below 12,000 feet AGL
Present Weather: automated observation with no human augmentation;
there may or may not be significant weather present at this time
KFMY 170353Z AUTO 06006KT 9SM CLR 19/17 A3005 RMK AO2 SLP176 T01890167

Conditions at: KFMY observed 17 November 2017  02:53 UTC
Temperature: 19.4°C (67°F)
Dewpoint: 17.2°C (63°F) [RH = 87%]
Pressure (altimeter): 30.05 inches Hg (1017.7 mb)
[Sea-level pressure: 1017.7 mb]
Winds: from the ENE (70 degrees) at 7 MPH (6 knots; 3.1 m/s)
Visibility: 8 miles (13 km)
Ceiling: at least 12,000 feet AGL
Clouds: sky clear below 12,000 feet AGL
Present Weather: automated observation with no human augmentation;
there may or may not be significant weather present at this time
KFMY 170253Z AUTO 07006KT 8SM CLR 19/17 A3005 RMK AO2 SLP177 T01940172 52019

Conditions at: KFMY observed 17 November 2017  01:53 UTC
Temperature: 20.6°C (69°F)
Dewpoint: 17.8°C (64°F) [RH = 84%]
Pressure (altimeter): 30.03 inches Hg (1017.0 mb)
[Sea-level pressure: 1017.1 mb]
Winds: from the ENE (60 degrees) at 10 MPH (9 knots; 4.7 m/s)
Visibility: 9 miles (14 km)
Ceiling: at least 12,000 feet AGL
Clouds: sky clear below 12,000 feet AGL
Present Weather: no significant weather observed at this time
KFMY 170153Z 06009KT 9SM CLR 21/18 A3003 RMK AO2 SLP171 T02060178

Conditions at: KFMY observed 17 November 2017  00:53 UTC
Temperature: 21.7°C (71°F)
Dewpoint: 17.2°C (63°F) [RH = 76%]
Pressure (altimeter): 30.01 inches Hg (1016.3 mb)
[Sea-level pressure: 1016.4 mb]
Winds: from the ENE (60 degrees) at 9 MPH (8 knots; 4.2 m/s)
Visibility: 9 miles (14 km)
Ceiling: at least 12,000 feet AGL
Clouds: sky clear below 12,000 feet AGL
Present Weather: no significant weather observed at this time
KFMY 170053Z 06008KT 9SM CLR 22/17 A3001 RMK AO2 SLP164 T02170172

Conditions at: KFMY observed 16 November 2017  23:53 UTC
Temperature: 21.7°C (71°F)
Dewpoint: 18.3°C (65°F) [RH = 81%]
Pressure (altimeter): 29.99 inches Hg (1015.7 mb)
[Sea-level pressure: 1015.8 mb]
Winds: from the NNW (330 degrees) at 5 MPH (4 knots; 2.1 m/s)
Visibility: 8 miles (13 km)
Ceiling: at least 12,000 feet AGL
Clouds: sky clear below 12,000 feet AGL
Present Weather: no significant weather observed at this time
KFMY 162353Z 33004KT 8SM CLR 22/18 A2999 RMK AO2 SLP158 T02170183 10272 20217 53017

Conditions at: KFMY observed 16 November 2017  22:53 UTC
Temperature: 23.3°C (74°F)
Dewpoint: 16.1°C (61°F) [RH = 64%]
Pressure (altimeter): 29.97 inches Hg (1015.0 mb)
[Sea-level pressure: 1015.1 mb]
Winds: from the NNE (30 degrees) at 6 MPH (5 knots; 2.6 m/s)
Visibility: 9 miles (14 km)
Ceiling: at least 12,000 feet AGL
Clouds: sky clear below 12,000 feet AGL
Present Weather: no significant weather observed at this time
KFMY 162253Z 03005KT 9SM CLR 23/16 A2997 RMK AO2 SLP151 T02330161

Conditions at: KFMY observed 16 November 2017  21:53 UTC
Temperature: 25.0°C (77°F)
Dewpoint: 16.1°C (61°F) [RH = 58%]
Pressure (altimeter): 29.96 inches Hg (1014.6 mb)
[Sea-level pressure: 1014.6 mb]
Winds: from the NE (40 degrees) at 9 MPH (8 knots; 4.2 m/s)
Visibility: 9 miles (14 km)
Ceiling: at least 12,000 feet AGL
Clouds: sky clear below 12,000 feet AGL
Present Weather: no significant weather observed at this time
KFMY 162153Z 04008KT 9SM CLR 25/16 A2996 RMK AO2 SLP146 T02500161

Conditions at: KFMY observed 16 November 2017  20:53 UTC
Temperature: 25.6°C (78°F)
Dewpoint: 16.7°C (62°F) [RH = 58%]
Pressure (altimeter): 29.94 inches Hg (1014.0 mb)
[Sea-level pressure: 1014.1 mb]
Winds: from the NE (50 degrees) at 9 MPH (8 knots; 4.2 m/s)
Visibility: 9 miles (14 km)
Ceiling: at least 12,000 feet AGL
Clouds: scattered clouds at 4500 feet AGL
Present Weather: no significant weather observed at this time
KFMY 162053Z 05008KT 9SM SCT045 26/17 A2994 RMK AO2 SLP141 T02560167 55010

Conditions at: KFMY observed 16 November 2017  19:53 UTC
Temperature: 26.1°C (79°F)
Dewpoint: 16.7°C (62°F) [RH = 56%]
Pressure (altimeter): 29.94 inches Hg (1014.0 mb)
[Sea-level pressure: 1014.1 mb]
Winds: from the N (10 degrees) at 7 MPH (6 knots; 3.1 m/s)
Visibility: 9 miles (14 km)
Ceiling: at least 12,000 feet AGL
Clouds: few clouds at 3800 feet AGL
Present Weather: no significant weather observed at this time
KFMY 161953Z 01006KT 9SM FEW038 26/17 A2994 RMK AO2 SLP141 T02610167

Conditions at: KFMY observed 16 November 2017  18:53 UTC
Temperature: 26.7°C (80°F)
Dewpoint: 17.8°C (64°F) [RH = 58%]
Pressure (altimeter): 29.95 inches Hg (1014.3 mb)
[Sea-level pressure: 1014.4 mb]
Winds: from the N (360 degrees) at 10 MPH (9 knots; 4.7 m/s)
gusting to 24 MPH (21 knots; 10.9 m/s)
Visibility: 9 miles (14 km)
Ceiling: at least 12,000 feet AGL
Clouds: sky clear below 12,000 feet AGL
Present Weather: no significant weather observed at this time
KFMY 161853Z 36009G21KT 9SM CLR 27/18 A2995 RMK AO2 SLP144 T02670178

Conditions at: KFMY observed 16 November 2017  17:53 UTC
Temperature: 24.4°C (76°F)
Dewpoint: 17.8°C (64°F) [RH = 67%]
Pressure (altimeter): 29.97 inches Hg (1015.0 mb)
[Sea-level pressure: 1015.2 mb]
Winds: from the N (10 degrees) at 5 MPH (4 knots; 2.1 m/s)
Visibility: 8 miles (13 km)
Ceiling: at least 12,000 feet AGL
Clouds: sky clear below 12,000 feet AGL
Present Weather: automated observation with no human augmentation;
there may or may not be significant weather present at this time
KFMY 161753Z AUTO 01004KT 8SM CLR 24/18 A2997 RMK AO2 SLP152 6//// T02440178 10244 20183